ES-0063 weather

Aeròdrom del Pla de Bages
Sallent, Catalonia, Spain

Public forecast

Using degrees Celsius for public forecast. Weather courtesy of forecast.io.

METAR (pilot weather report)

Closest report is Sabadell Airport, 18.2 nm (33.7 km) SSE. Retrieved 2019/09/22 19:30 UTC (0 seconds ago):

LELL 221930Z AUTO 24009KT 210V280 9999 FEW036 25/19 Q1013

TAF (pilot weather forecast)

Closest forecast is Sabadell Airport, 18.2 nm (33.7 km) SSE. Retrieved 2019/09/22 15:31 UTC (4 hours ago):

TAF LELL 221400Z 2215/2315 25008KT 9999 BKN025 TX26/2313Z TN15/2305Z PROB40 TEMPO 2215/2218 TS FEW030CB BECMG 2220/2222 30004KT